Tiempo atmosférico en la estación meteorológica de Jávea/ Xàbia, Alacant/Alicante (15 m.)



Fecha
DESCASC
Temp. máxima en grados centígrados (hora)
DESCASC
Temp. mínima en grados centígrados (hora)
DESCASC
Temp. media en grados centígrados
DESCASC
Racha de viento máxima en m/sg (hora)
DESCASC
Velocidad máxima media en intervalos de 10 minutos(hora)
DESCASC
Precipitaciones diarias en mm
DESCASC
Precipitaciones de 00:00 a 06:00 en mm
DESCASC
Precipitaciones de 06:00 a 12:00 en mm
DESCASC
Precipitaciones de 12:00 a 18:00 en mm
DESCASC
Precipitaciones de 18:00 a 24:00 en mm
DESCASC
17-10-2019 28.4 (15:30) 11.9 (08:30) 20.1 7.5 (17:20) 3.89 (16:50) 0 0 0 0 0
16-10-2019 26 (14:20) 9.8 (07:00) 17.9 10.83 (16:40) 5.56 (16:10) 0 0 0 0 0
15-10-2019 26 (16:10) 12.4 (23:59) 19.2 15 (06:30) 7.22 (07:20) 0 0 0 0 0
14-10-2019 25.5 (11:40) 17.5 (08:10) 21.5 8.89 (13:50) 5.28 (13:30) 2.2 0 0.8 1.2 0.2
13-10-2019 27.2 (15:20) 18 (00:00) 22.6 8.61 (11:20) 5 (13:00) 0 0 0 0 0
12-10-2019 26.4 (14:40) 18 (00:00) 22.2 7.22 (15:20) 4.17 (15:10) 0 0 0 0 0
11-10-2019 27.3 (14:30) 16.5 (00:00) 21.9 5.83 (16:00) 3.33 (18:20) 0 0 0 0 0
10-10-2019 26.9 (12:40) 16.5 (00:00) 21.7 5 (14:30) 3.06 (15:40) 0 0 0 0 0
09-10-2019 27.5 (13:40) 18.5 (00:00) 23 8.33 (11:50) 4.72 (11:20) 0 0 0 0 0
08-10-2019 26.7 (15:40) 15 (00:00) 20.9 11.39 (15:20) 6.39 (15:10) 0 0 0 0 0
07-10-2019 27 (12:10) 17.5 (00:00) 22.3 9.17 (13:50) 5 (02:40) 0 0 0 0 0
06-10-2019 27.3 (14:00) 17.3 (00:00) 22.3 6.94 (12:40) 4.17 (12:20) 0 0 0 0 0
05-10-2019 26.9 (12:30) 16 (00:00) 21.4 9.17 (12:40) 5.28 (11:40) 0 0 0 0 0
04-10-2019 28.5 (16:10) 13 (00:00) 20.8 6.67 (16:40) 3.89 (22:10) 0 0 0 0 0
03-10-2019 26.1 (18:10) 15.8 (00:00) 21 6.67 (11:50) 3.89 (12:00) 0 0 0 0 0
02-10-2019 28.1 (01:00) 18.1 (00:00) 23.1 11.39 (01:00) 6.39 (01:40) 0 0 0 0 0
01-10-2019 31.3 (13:50) 17.1 (00:00) 24.2 9.44 (23:30) 4.44 (23:59) 0.2 0 0.2 0 0
30-09-2019 28.9 (15:30) 16 (00:00) 22.4 8.33 (14:40) 5.28 (16:10) 0 0 0 0 0
29-09-2019 28.2 (16:50) 16.4 (00:00) 22.3 9.72 (16:00) 5 (16:10) 0 0 0 0 0
28-09-2019 29.1 (16:00) 19.1 (00:00) 24.1 8.06 (11:00) 5 (13:00) 0 0 0 0 0
27-09-2019 29 (13:40) 17 (00:00) 23 9.17 (16:20) 4.72 (16:20) 0 0 0 0 0
26-09-2019 28.8 (15:50) 18 (00:00) 23.4 7.78 (16:00) 4.17 (16:30) 0 0 0 0 0
25-09-2019 30.9 (12:20) 19.2 (00:00) 25.1 12.5 (11:30) 7.22 (12:40) 0 0 0 0 0
24-09-2019 31.9 (15:20) 17.4 (00:00) 24.6 9.72 (17:40) 5.28 (18:20) 0 0 0 0 0
23-09-2019 28 (14:40) 20.8 (00:00) 24.4 8.61 (09:30) 4.72 (09:20) 0 0 0 0 0
22-09-2019 29.6 (15:00) 20.5 (00:00) 25.1 6.39 (15:50) 3.89 (22:00) 0 0 0 0 0
21-09-2019 28.9 (17:00) 21.9 (00:00) 25.4 8.61 (11:50) 5.28 (14:20) 0 0 0 0 0
20-09-2019 27.4 (14:40) 20 (00:00) 23.7 6.67 (11:00) 4.72 (11:00) 0 0 0 0 0
19-09-2019 28.7 (14:10) 17.6 (00:00) 23.2 6.67 (10:40) 4.17 (15:30) -- -- -- -- 0

Gráficas

Temp. máximas Temp. mínimas Temp. medias Precipitaciones Rachas de viento máximas Velocidades máximas media en intervalos de 10 minutos

Datos horarios

Fecha y hora oficial Temperatura (ºC) Velocidad del viento (km/h) Dirección del viento Racha (km/h) Dirección de racha Precipitación (mm) Presión (hPa) Tendencia (hPa) Humedad (%)
2019-10-18 23:00:00 20.5 5 Oeste 18 Sudoeste 0 1012.4 -0.3 53
2019-10-18 22:00:00 22.3 14 Sudoeste 26 Oeste 0 1012.5 -0.3 47
2019-10-18 21:00:00 22.1 9 Oeste 17 Sudoeste 0 1012.6 -0.2 40
2019-10-18 20:00:00 22 7 Oeste 23 Oeste 0 1012.7 -0.7 43
2019-10-18 19:00:00 23.4 9 Oeste 37 Sur 0 1012.8 -0.9 48
2019-10-18 18:00:00 25.1 17 Sudoeste 33 Sudoeste 0 1012.8 -1.4 42
2019-10-18 17:00:00 27.3 9 Sur 24 Sur 0 1013.4 -1.7 42
2019-10-18 16:00:00 27.7 11 Sur 22 Sur 0 1013.7 -2 32
2019-10-18 15:00:00 27.3 9 Sudoeste 20 Sudoeste 0 1014.2 -1.7 37
2019-10-18 14:00:00 28 5 Sudoeste 17 Este 0 1015.1 -0.8 37
2019-10-18 13:00:00 27.8 4 Norte 12 Oeste 0 1015.7 0.1 37
2019-10-18 12:00:00 24.5 6 Sudoeste 12 Oeste 0 1015.9 0.6 51
2019-10-18 11:00:00 21.9 7 Sudoeste 14 Noroeste 0 1015.9 0.9 58
2019-10-18 10:00:00 17.7 7 Sudoeste 12 Oeste 0 1015.6 0.7 72
2019-10-18 09:00:00 14.6 8 Sudoeste 13 Sudoeste 0 1015.3 0.4 78
2019-10-18 08:00:00 14.2 9 Oeste 15 Sudoeste 0 1015 -0.2 77
2019-10-18 07:00:00 15 8 Oeste 16 Oeste 0 1014.9 -0.6 73
2019-10-18 06:00:00 14 12 Sudoeste 17 Oeste 0 1014.9 -0.9 79
2019-10-18 05:00:00 15.3 8 Sudoeste 14 Oeste 0 1015.2 -0.8 71
2019-10-18 04:00:00 15.2 6 Sudoeste 12 Oeste 0 1015.5 -0.6 71
2019-10-18 03:00:00 15.7 10 Oeste 13 Oeste 0 1015.8 -0.3 70
2019-10-18 02:00:00 14.9 6 Oeste 10 Sur 0 1016 -0.1 76
2019-10-18 01:00:00 15.5 5 Oeste 14 Sudoeste 0 1016.1 0.7 76
2019-10-18 00:00:00 16.9 7 Oeste 13 Oeste 0 1016.1 1.1 71
2019-10-17 23:00:00 17.5 6 Sur 17 Oeste 0 1016.1 1.6 69
2019-10-17 22:00:00 20 10 Oeste 16 Oeste 0 1015.4 1.2 66
2019-10-17 21:00:00 20.3 8 Oeste 14 Sudoeste 0 1015 0.8 63
2019-10-17 20:00:00 21.1 8 Sudoeste 18 Sudoeste 0 1014.5 -0.1 59
2019-10-17 19:00:00 22.5 13 Sudoeste 23 Sudoeste 0 1014.2 -0.6 52
2019-10-17 18:00:00 24.7 12 Sudoeste 27 Sudoeste 0 1014.2 -1.3 43
2019-10-17 17:00:00 26.4 13 Sur 24 Sur 0 1014.6 -1.6 37
2019-10-17 16:00:00 28.1 10 Sur 21 Sur 0 1014.8 -2 27
2019-10-17 15:00:00 28.1 9 Sur 17 Sur 0 1015.5 -1.3 23
2019-10-17 14:00:00 26.7 6 Este 15 Sudeste 0 1016.2 -0.4 30
2019-10-17 13:00:00 25.7 8 Este 13 Sudeste 0 1016.8 0.5 32
2019-10-17 12:00:00 24.8 7 Nordeste 11 Nordeste 0 1016.8 1.3 33
2019-10-17 11:00:00 22.3 3 Sur 8 Sudoeste 0 1016.6 1.3 38
2019-10-17 10:00:00 16.8 5 Oeste 15 Oeste 0 1016.3 1 53
2019-10-17 09:00:00 12.6 9 Oeste 17 Oeste 0 1015.5 0.4 61
2019-10-17 08:00:00 13 9 Oeste 18 Oeste 0 1015.3 0 62
2019-10-17 07:00:00 13.3 8 Oeste 15 Oeste 0 1015.3 -0.3 63
2019-10-17 06:00:00 12.5 10 Oeste 15 Oeste 0 1015.1 -0.8 71
2019-10-17 05:00:00 12.2 8 Sudoeste 12 Oeste 0 1015.3 -0.7 77
2019-10-17 04:00:00 13.8 7 Oeste 14 Oeste 0 1015.6 -0.9 74
2019-10-17 03:00:00 15 5 Oeste 13 Oeste 0 1015.9 -0.8 75
2019-10-17 02:00:00 14.4 7 Sudoeste 14 Oeste 0 1016 -0.1 75
2019-10-17 01:00:00 16.4 6 Oeste 10 Oeste 0 1016.5 0.8 71
2019-10-17 00:00:00 17 7 Oeste 16 Sudoeste 0 1016.7 1.4 71
2019-10-16 23:00:00 18.7 10 Sudoeste 21 Oeste 0 1016.1 0.8 66
2019-10-16 22:00:00 18.8 12 Oeste 22 Sudoeste 0 1015.7 0.4 67
2019-10-16 21:00:00 19.3 13 Oeste 24 Oeste 0 1015.3 -0.3 63
2019-10-16 20:00:00 19.8 10 Oeste 28 Sudoeste 0 1015.3 -0.8 58
2019-10-16 19:00:00 21.5 15 Sudoeste 33 Sudoeste 0 1015.3 -1.2 51
2019-10-16 18:00:00 23.6 12 Sudoeste 36 Sur 0 1015.6 -1.7 41
2019-10-16 17:00:00 24 19 Sur 39 Sur 0 1016.1 -2.1 34
2019-10-16 16:00:00 24.6 18 Sur 34 Sur 0 1016.5 -2.4 33
2019-10-16 15:00:00 25.4 13 Sudoeste 31 Sur 0 1017.3 -1.9 29
2019-10-16 14:00:00 25.5 12 Sur 23 Sur 0 1018.2 -1.2 27
2019-10-16 13:00:00 24.6 9 Este 17 Este 0 1018.9 -0.2 29
2019-10-16 12:00:00 24.2 4 Oeste 12 Sudoeste 0 1019.2 0.6 25
2019-10-16 11:00:00 20.7 4 Oeste 11 Sudoeste 0 1019.4 0.9 36
2019-10-16 10:00:00 15.3 9 Sudoeste 15 Sudoeste 0 1019.1 0.8 53
2019-10-16 09:00:00 10.7 10 Sudoeste 14 Sudoeste 0 1018.6 0.2 62
2019-10-16 08:00:00 10.7 10 Oeste 14 Oeste 0 1018.5 0 59
2019-10-16 07:00:00 9.8 8 Sudoeste 15 Oeste 0 1018.3 -0.6 65
2019-10-16 06:00:00 10.1 11 Oeste 15 Oeste 0 1018.4 -0.6 65
2019-10-16 05:00:00 10.4 9 Oeste 15 Oeste 0 1018.5 -0.6 64
2019-10-16 04:00:00 10.6 10 Sudoeste 14 Sudoeste 0 1018.9 -0.2 66
2019-10-16 03:00:00 11 9 Sudoeste 15 Oeste 0 1019 -0.2 67
2019-10-16 02:00:00 11.7 11 Oeste 15 Oeste 0 1019.1 0.1 68
2019-10-16 01:00:00 12.6 9 Sudoeste 15 Sudoeste 0 1019.1 0.3 65
2019-10-16 00:00:00 12.4 10 Sudoeste 15 Sudoeste 0 1019.2 0.7 66
2019-10-15 23:00:00 13.6 9 Oeste 17 Oeste 0 1019 1 63
2019-10-15 22:00:00 13.5 7 Oeste 10 Sudoeste 0 1018.8 1.3 68
2019-10-15 21:00:00 15.2 3 Sudoeste 6 Sudoeste 0 1018.5 1.2 60
2019-10-15 20:00:00 18.3 4 Noroeste 12 Sudeste 0 1018 0.7 46
2019-10-15 19:00:00 21.6 7 Sur 17 Sur 0 1017.5 0.3 32
2019-10-15 18:00:00 24 10 Sur 19 Sur 0 1017.3 -0.2 27
2019-10-15 17:00:00 25.4 7 Sur 18 Sudoeste 0 1017.3 -0.6 26
2019-10-15 16:00:00 25.6 13 Noroeste 23 Noroeste 0 1017.2 -1.1 21
2019-10-15 15:00:00 24.7 13 Oeste 29 Noroeste 0 1017.5 -0.8 21
2019-10-15 14:00:00 23.8 14 Oeste 25 Oeste 0 1017.9 0.4 23
2019-10-15 13:00:00 22.6 14 Noroeste 36 Noroeste 0 1018.3 2 26
2019-10-15 12:00:00 21.1 15 Noroeste 39 Oeste 0 1018.3 3 29
2019-10-15 11:00:00 19.9 21 Oeste 43 Oeste 0 1017.5 2.8 30
2019-10-15 10:00:00 18.1 25 Noroeste 43 Noroeste 0 1016.3 1.8 34
2019-10-15 09:00:00 16.6 19 Oeste 45 Oeste 0 1015.3 0.5 38
2019-10-15 08:00:00 16.5 17 Oeste 48 Oeste 0 1014.7 0.6 42
2019-10-15 07:00:00 16.9 24 Oeste 54 Oeste 0 1014.5 0.5 45
2019-10-15 06:00:00 17.2 17 Oeste 46 Oeste 0 1014.8 1.2 46
2019-10-15 05:00:00 17.9 18 Oeste 38 Oeste 0 1014.1 0.8 44
2019-10-15 04:00:00 18.3 12 Oeste 39 Oeste 0 1014 1.3 43
2019-10-15 03:00:00 19 21 Oeste 35 Oeste 0 1013.6 1.5 43
2019-10-15 02:00:00 19.5 16 Oeste 47 Noroeste 0 1013.3 1.6 46
2019-10-15 01:00:00 21.1 22 Noroeste 37 Noroeste 0 1012.7 1.2 44
2019-10-15 00:00:00 19.4 9 Oeste 24 Noroeste 0 1012.1 1.4 74
2019-10-14 23:00:00 20.9 9 Sudoeste 16 Sudoeste 0.2 1011.7 1.6 86
2019-10-14 22:00:00 21.8 5 Sudoeste 24 Sudoeste 0 1011.5 1.1 81
2019-10-14 21:00:00 21.9 9 Sudoeste 22 Sudoeste 0 1010.7 0.1 81
2019-10-14 20:00:00 21.9 9 Sudoeste 18 Sudoeste 0 1010.1 -0.7 80
2019-10-14 19:00:00 23.6 6 Sudeste 12 Sudeste 0 1010.4 -0.5 72
2019-10-14 18:00:00 25 4 Sudeste 12 Este 0 1010.6 -1.2 65
2019-10-14 17:00:00 24.2 3 Norte 19 Nordeste 0 1010.8 -1.4 74
2019-10-14 16:00:00 21.5 7 Nordeste 26 Norte 1 1010.9 -2.3 92
2019-10-14 15:00:00 21.5 12 Norte 32 Norte 0.2 1011.8 -0.5 84
2019-10-14 14:00:00 22.4 14 Norte 32 Nordeste 0 1012.2 0 81
2019-10-14 13:00:00 23.7 18 Norte 29 Norte 0 1013.2 0.7 74
2019-10-14 12:00:00 24.4 8 Nordeste 16 Norte 0.8 1012.3 0 80
2019-10-14 11:00:00 24.3 8 Nordeste 17 Nordeste 0 1012.2 -0.4 76
2019-10-14 10:00:00 20.5 7 Sudoeste 12 Oeste 0 1012.5 -0.2 94
2019-10-14 09:00:00 17.8 9 Sudoeste 13 Oeste 0 1012.3 -0.5 95
2019-10-14 08:00:00 17.8 8 Sudoeste 12 Oeste 0 1012.6 -0.9 95
2019-10-14 07:00:00 18.3 8 Oeste 13 Oeste 0 1012.7 -1.3 95
2019-10-14 06:00:00 17.8 6 Sudoeste 10 Oeste 0 1012.8 -1.7 94
2019-10-14 05:00:00 19.1 6 Oeste 10 Sudoeste 0 1013.5 -1.3 94
2019-10-14 04:00:00 19.7 8 Oeste 11 Norte 0 1014 -1.1 93
2019-10-14 03:00:00 21 9 Noroeste 15 Noroeste 0 1014.5 -0.9 93
2019-10-14 02:00:00 19.3 0 Calma 8 Norte 0 1014.8 -0.4 93
2019-10-14 01:00:00 19.7 3 Oeste 6 Oeste 0 1015.1 -0.2 92
2019-10-14 00:00:00 20.1 0 Calma 8 Oeste 0 1015.4 0.3 92
2019-10-13 23:00:00 20.3 6 Sudoeste 8 Oeste 0 1015.2 0.4 91
2019-10-13 22:00:00 20.4 5 Oeste 7 Oeste 0 1015.3 0.8 89
2019-10-13 21:00:00 21.6 3 Sudoeste 5 Sudoeste 0 1015.1 0.6 84
2019-10-13 20:00:00 23.3 0 Calma 10 Este 0 1014.8 0.1 79
2019-10-13 19:00:00 24.4 5 Este 14 Nordeste 0 1014.5 -0.2 72
2019-10-13 18:00:00 25.7 7 Nordeste 17 Nordeste 0 1014.5 -0.6 67
2019-10-13 17:00:00 25.3 9 Nordeste 19 Este 0 1014.7 -1.2 68
2019-10-13 16:00:00 26.7 10 Nordeste 21 Norte 0 1014.7 -1.6 62
2019-10-13 15:00:00 26.8 13 Norte 24 Norte 0 1015.1 -1 57
2019-10-13 14:00:00 26.4 14 Norte 27 Noroeste 0 1015.9 -0.1 63
2019-10-13 13:00:00 25.9 18 Norte 30 Noroeste 0 1016.3 0.7 65
2019-10-13 12:00:00 25.1 18 Norte 31 Noroeste 0 1016.1 0.9 69
2019-10-13 11:00:00 23.8 17 Noroeste 27 Norte 0 1016 1.1 76
2019-10-13 10:00:00 21.1 8 Oeste 14 Oeste 0 1015.6 0.8 90
2019-10-13 09:00:00 18.9 6 Sudoeste 16 Sudoeste 0 1015.2 0.5 94
2019-10-13 08:00:00 18.3 8 Sudoeste 14 Sudoeste 0 1014.9 -0.2 94
2019-10-13 07:00:00 18.3 8 Oeste 15 Oeste 0 1014.8 -0.8 94
2019-10-13 06:00:00 18.2 6 Sudoeste 13 Oeste 0 1014.7 -1.2 94
2019-10-13 05:00:00 18.9 8 Oeste 15 Oeste 0 1015.1 -1.2 93
2019-10-13 04:00:00 18.6 8 Sudoeste 13 Sudoeste 0 1015.6 -0.7 93
2019-10-13 03:00:00 19.1 6 Oeste 13 Oeste 0 1015.9 -0.4 93
2019-10-13 02:00:00 19.3 8 Sudoeste 12 Oeste 0 1016.3 0.2 93
2019-10-13 01:00:00 20 6 Oeste 14 Sudoeste 0 1016.3 0.5 93
2019-10-13 00:00:00 20.1 6 Sudoeste 12 Sudoeste 0 1016.3 0.6 91
2019-10-12 23:00:00 21.5 6 Oeste 12 Oeste 0 1016.1 0.8 87
2019-10-12 22:00:00 22.7 5 Norte 13 Noroeste 0 1015.8 0.4 84
2019-10-12 21:00:00 22.9 4 Norte 13 Norte 0 1015.7 0.1 83
2019-10-12 20:00:00 23.2 7 Norte 17 Nordeste 0 1015.3 -0.6 81
2019-10-12 19:00:00 23.8 9 Norte 19 Norte 0 1015.4 -0.8 78
2019-10-12 18:00:00 24.6 12 Norte 22 Norte 0 1015.6 -1.1 75
2019-10-12 17:00:00 25.2 13 Norte 21 Norte 0 1015.9 -1.4 71
2019-10-12 16:00:00 25.9 11 Nordeste 26 Norte 0 1016.2 -1.6 67
2019-10-12 15:00:00 25.5 15 Norte 23 Nordeste 0 1016.7 -1.3 68
2019-10-12 14:00:00 24.4 11 Nordeste 22 Norte 0 1017.3 -0.5 74
2019-10-12 13:00:00 25.1 11 Nordeste 20 Nordeste 0 1017.8 0.4 72
2019-10-12 12:00:00 24.6 11 Norte 20 Norte 0 1018 1 71
2019-10-12 11:00:00 23.3 8 Norte 14 Norte 0 1017.8 0.8 78
2019-10-12 10:00:00 20.6 6 Oeste 13 Sudoeste 0 1017.4 0.7 86
2019-10-12 09:00:00 19.5 7 Oeste 14 Oeste 0 1017 0.2 87
2019-10-12 08:00:00 19 6 Sudoeste 14 Sudoeste 0 1017 0 89
2019-10-12 07:00:00 18.6 6 Sudoeste 13 Oeste 0 1016.7 -0.7 87
2019-10-12 06:00:00 18.3 8 Sudoeste 12 Oeste 0 1016.8 -1.3 90
2019-10-12 05:00:00 18.3 8 Sudoeste 13 Oeste 0 1017 -1.3 88
2019-10-12 04:00:00 18.3 8 Oeste 12 Oeste 0 1017.4 -1.3 93
2019-10-12 03:00:00 18.3 9 Sudoeste 12 Oeste 0 1018.1 -0.5 93
2019-10-12 02:00:00 18.2 9 Sudoeste 10 Sudoeste 0 1018.3 -0.3 93
2019-10-12 01:00:00 18.6 6 Sudoeste 10 Oeste 0 1018.7 0.6 92
2019-10-12 00:00:00 18.8 4 Oeste 8 Oeste 0 1018.6 0.6 90
2019-10-11 23:00:00 19.5 3 Oeste 8 Oeste 0 1018.6 0.7 87
2019-10-11 22:00:00 20.1 0 Calma 6 Sudoeste 0 1018.1 0.2 83
2019-10-11 21:00:00 21 4 Sudoeste 9 Sur 0 1018 -0.1 80
2019-10-11 20:00:00 22.6 4 Sur 12 Este 0 1017.9 -0.6 73
2019-10-11 19:00:00 23.8 6 Sudeste 20 Este 0 1017.9 -0.9 67
2019-10-11 18:00:00 25.8 10 Sudeste 19 Sudeste 0 1018.1 -1.3 60
2019-10-11 17:00:00 24.8 10 Este 21 Este 0 1018.5 -1.9 63
2019-10-11 16:00:00 24.9 11 Este 21 Este 0 1018.8 -2.1 63
2019-10-11 15:00:00 26 10 Este 18 Este 0 1019.4 -1.9 59
2019-10-11 14:00:00 25.9 6 Nordeste 16 Nordeste 0 1020.4 -0.9 61
2019-10-11 13:00:00 26.1 8 Nordeste 16 Nordeste 0 1020.9 0 58
2019-10-11 12:00:00 26 8 Nordeste 15 Nordeste 0 1021.3 1.1 60
2019-10-11 11:00:00 25 3 Este 8 Sudoeste 0 1021.3 1.4 69
2019-10-11 10:00:00 20.3 6 Sudoeste 9 Sudoeste 0 1020.9 0.8 87
2019-10-11 09:00:00 18 8 Sudoeste 11 Oeste 0 1020.2 0.2 93
2019-10-11 08:00:00 17.1 8 Sudoeste 11 Sudoeste 0 1019.9 -0.2 94
2019-10-11 07:00:00 16.7 9 Sudoeste 12 Sudoeste 0 1020.1 -0.2 93
2019-10-11 06:00:00 16.7 7 Sudoeste 11 Sudoeste 0 1020 -0.6 93
2019-10-11 05:00:00 17.2 7 Sudoeste 11 Oeste 0 1020.1 -0.6 92
2019-10-11 04:00:00 17.1 7 Sudoeste 11 Sudoeste 0 1020.3 -0.5 92
2019-10-11 03:00:00 17.5 8 Sudoeste 10 Sudoeste 0 1020.6 -0.3 91
2019-10-11 02:00:00 18.2 6 Sudoeste 9 Oeste 0 1020.7 -0.1 91
2019-10-11 01:00:00 18.9 5 Oeste 8 Oeste 0 1020.8 0.3 89
2019-10-11 00:00:00 19.6 5 Sudoeste 7 Sudoeste 0 1020.9 0.9 85
2019-10-10 23:00:00 20.9 4 Oeste 7 Sudoeste 0 1020.8 1.2 82
2019-10-10 22:00:00 20.7 6 Sudoeste 7 Sudoeste 0 1020.5 1.1 83
2019-10-10 21:00:00 20.9 4 Sudoeste 6 Sudoeste 0 1020 0.8 79
2019-10-10 20:00:00 22.8 3 Este 12 Sudeste 0 1019.6 0.2 69
2019-10-10 19:00:00 24.3 6 Este 14 Este 0 1019.4 -0.2 64
2019-10-10 18:00:00 25.6 7 Este 16 Nordeste 0 1019.2 -0.5 60
2019-10-10 17:00:00 25.7 9 Nordeste 17 Nordeste 0 1019.4 -0.7 59
2019-10-10 16:00:00 26.2 9 Nordeste 17 Este 0 1019.6 -1 56
2019-10-10 15:00:00 26 9 Nordeste 18 Nordeste 0 1019.7 -1 55
2019-10-10 14:00:00 26.4 8 Este 17 Nordeste 0 1020.1 -0.5 55
2019-10-10 13:00:00 26.1 8 Nordeste 14 Nordeste 0 1020.6 0.5 54
2019-10-10 12:00:00 26.4 6 Este 13 Este 0 1020.7 1.4 55
2019-10-10 11:00:00 24.9 3 Sudeste 11 Oeste 0 1020.6 1.9 65
2019-10-10 10:00:00 20.7 7 Oeste 13 Oeste 0 1020.1 1.8 82
2019-10-10 09:00:00 17.1 7 Sudoeste 10 Oeste 0 1019.3 1 94
2019-10-10 08:00:00 16.6 8 Oeste 12 Oeste 0 1018.7 0.4 94
2019-10-10 07:00:00 16.6 8 Sudoeste 11 Oeste 0 1018.3 0 94
2019-10-10 06:00:00 16.8 7 Sudoeste 10 Sudoeste 0 1018.3 -0.2 94
2019-10-10 05:00:00 17.2 7 Sudoeste 10 Sudoeste 0 1018.3 -0.1 93
2019-10-10 04:00:00 17.7 7 Sudoeste 9 Sudoeste 0 1018.3 0.2 92
2019-10-10 03:00:00 18 8 Sudoeste 9 Sudoeste 0 1018.5 0.7 93
2019-10-10 02:00:00 17.9 4 Oeste 8 Sudoeste 0 1018.4 1 90
2019-10-10 01:00:00 18.5 3 Sudoeste 5 Sudoeste 0 1018.1 1.2 89
2019-10-10 00:00:00 19 5 Oeste 7 Oeste 0 1017.8 1.7 87
2019-10-09 23:00:00 19.6 4 Oeste 6 Oeste 0 1017.4 1.9 85
2019-10-09 22:00:00 19.8 2 Sudoeste 8 Sudoeste 0 1016.9 2.1 81
2019-10-09 21:00:00 21.1 6 Sudoeste 10 Sudoeste 0 1016.1 1.6 75
2019-10-09 20:00:00 22.4 8 Sur 21 Sur 0 1015.5 0.9 69
2019-10-09 19:00:00 24.3 12 Sur 21 Sur 0 1014.8 0.3 62
2019-10-09 18:00:00 26.4 10 Sur 27 Sur 0 1014.5 -0.2 53
2019-10-09 17:00:00 26.4 13 Sudoeste 26 Sur 0 1014.6 -1.1 53
2019-10-09 16:00:00 26.7 14 Sur 26 Sur 0 1014.5 -1.4 52
2019-10-09 15:00:00 27.2 14 Sur 26 Sur 0 1014.7 -1.4 53
2019-10-09 14:00:00 27.3 10 Sur 23 Sudoeste 0 1015.7 -0.3 52
2019-10-09 13:00:00 26.8 10 Sur 23 Sur 0 1015.9 -0.1 51
2019-10-09 12:00:00 25.5 13 Sur 30 Sudoeste 0 1016.1 0.9 55
2019-10-09 11:00:00 24.3 12 Sur 24 Sur 0 1016 1 60
2019-10-09 10:00:00 22.6 8 Sudoeste 15 Sur 0 1016 1 70
2019-10-09 09:00:00 19.3 5 Oeste 10 Oeste 0 1015.2 0.3 83
2019-10-09 08:00:00 18.9 5 Oeste 13 Noroeste 0 1015 0 82
2019-10-09 07:00:00 19.2 5 Sudoeste 12 Sudoeste 0 1015 -0.3 83
2019-10-09 06:00:00 19 4 Oeste 10 Oeste 0 1014.9 -0.7 81
2019-10-09 05:00:00 19.8 3 Sudoeste 15 Oeste 0 1015 -0.8 79
2019-10-09 04:00:00 20.2 4 Oeste 17 Sur 0 1015.3 -0.7 77
2019-10-09 03:00:00 20.5 6 Sudoeste 25 Sudoeste 0 1015.6 -0.6 73
2019-10-09 02:00:00 20.5 8 Sudoeste 20 Sur 0 1015.8 -0.2 73
2019-10-09 01:00:00 20.7 5 Oeste 22 Oeste 0 1016 -0.1 72
2019-10-09 00:00:00 21.2 8 Sudoeste 32 Oeste 0 1016.2 0.2 71
2019-10-08 23:00:00 21.4 7 Sudoeste 23 Sudoeste 0 1016 0 71
2019-10-08 22:00:00 21.6 6 Sudoeste 31 Sudoeste 0 1016.1 0.2 70
2019-10-08 21:00:00 22 13 Sudoeste 33 Sudoeste 0 1016 -0.3 68
2019-10-08 20:00:00 22.4 14 Sudoeste 34 Sudoeste 0 1016 -0.4 65
2019-10-08 19:00:00 23.9 14 Sudoeste 36 Sur 0 1015.9 -1 59
2019-10-08 18:00:00 25.6 13 Sur 41 Sur 0 1016.3 -1.1 55
2019-10-08 17:00:00 25.5 22 Sur 39 Sur 0 1016.4 -1.7 56
2019-10-08 16:00:00 26 21 Sur 41 Sur 0 1016.9 -1.9 54
2019-10-08 15:00:00 26.2 22 Sur 41 Sur 0 1017.4 -1.8 54
2019-10-08 14:00:00 26.1 22 Sur 39 Sur 0 1018.1 -1 56
2019-10-08 13:00:00 26.5 15 Sur 33 Sur 0 1018.8 0.1 53
2019-10-08 12:00:00 25.9 14 Sur 28 Sudoeste 0 1019.2 0.9 55
2019-10-08 11:00:00 24.6 9 Sudoeste 19 Sudoeste 0 1019.1 1.1 64
2019-10-08 10:00:00 21.1 8 Sudoeste 12 Sudoeste 0 1018.7 0.8 76
2019-10-08 09:00:00 15.8 5 Sudoeste 11 Oeste 0 1018.3 0.5 90
2019-10-08 08:00:00 15.2 6 Sudoeste 11 Sudoeste 0 1018 0.2 90
2019-10-08 07:00:00 15.4 8 Sudoeste 11 Oeste 0 1017.9 0.1 90
2019-10-08 06:00:00 15.4 8 Oeste 12 Sudoeste 0 1017.8 0.1 90
2019-10-08 05:00:00 15.5 6 Sudoeste 13 Oeste 0 1017.8 0.4 89
2019-10-08 04:00:00 15.7 6 Sudoeste 10 Sudoeste 0 1017.8 0.5 89
2019-10-08 03:00:00 16.6 7 Oeste 13 Sudoeste 0 1017.7 0.3 85
2019-10-08 02:00:00 16.8 8 Sudoeste 13 Oeste 0 1017.4 0 84
2019-10-08 01:00:00 16.8 7 Sudoeste 14 Oeste 0 1017.3 0.5 84
2019-10-08 00:00:00 17.5 8 Sudoeste 13 Oeste 0 1017.4 1.2 81
2019-10-07 23:00:00 17.8 9 Sudoeste 12 Sudoeste 0 1017.4 1.7 81
2019-10-07 22:00:00 18.8 7 Sudoeste 10 Oeste 0 1016.8 1.7 78
2019-10-07 21:00:00 19.5 5 Oeste 9 Oeste 0 1016.2 1.4 76
2019-10-07 20:00:00 22.1 3 Sur 9 Este 0 1015.7 1 65
2019-10-07 19:00:00 24 6 Este 14 Sudeste 0 1015.1 0.2 56
2019-10-07 18:00:00 24.8 8 Nordeste 16 Este 0 1014.8 -0.6 47
2019-10-07 17:00:00 24.1 10 Este 22 Nordeste 0 1014.7 -0.6 51
2019-10-07 16:00:00 25.4 11 Nordeste 23 Este 0 1014.9 -0.6 47
2019-10-07 15:00:00 24.9 13 Nordeste 29 Este 0 1015.4 0.1 45
2019-10-07 14:00:00 25 15 Nordeste 33 Nordeste 0 1015.3 0.5 46
2019-10-07 13:00:00 26 11 Nordeste 24 Norte 0 1015.5 1.1 55
2019-10-07 12:00:00 26.9 11 Norte 18 Nordeste 0 1015.3 1.4 47
2019-10-07 11:00:00 25.3 9 Norte 17 Norte 0 1014.8 0.9 61
2019-10-07 10:00:00 22.3 5 Oeste 10 Oeste 0 1014.4 1 76
2019-10-07 09:00:00 19.9 6 Oeste 14 Noroeste 0 1013.9 -0.2 86
2019-10-07 08:00:00 20.2 9 Noroeste 14 Noroeste 0 1013.9 -0.2 86
2019-10-07 07:00:00 20.4 8 Oeste 18 Noroeste 0 1013.4 -1.1 84
2019-10-07 06:00:00 21.2 11 Noroeste 18 Noroeste 0 1014.1 -1.1 84
2019-10-07 05:00:00 21.4 5 Oeste 18 Oeste 0 1014.1 -1 86
2019-10-07 04:00:00 21.5 8 Oeste 19 Oeste 0 1014.5 -0.9 86
2019-10-07 03:00:00 21.8 13 Noroeste 29 Noroeste 0 1015.2 -0.3 89
2019-10-07 02:00:00 19.7 9 Sudoeste 13 Sudoeste 0 1015.1 -0.4 94
2019-10-07 01:00:00 19.3 8 Sudoeste 11 Oeste 0 1015.4 0.3 92
2019-10-07 00:00:00 19.5 7 Oeste 10 Sudoeste 0 1015.5 0.7 92
2019-10-06 23:00:00 20 2 Norte 9 Sudoeste 0 1015.5 0.9 87
2019-10-06 22:00:00 21.2 4 Oeste 13 Sudoeste 0 1015.1 0.2 86
2019-10-06 21:00:00 21.8 4 Sudoeste 14 Sudoeste 0 1014.8 -0.3 84
2019-10-06 20:00:00 22.6 8 Sudoeste 18 Sudoeste 0 1014.6 -1 79
2019-10-06 19:00:00 24.9 7 Sur 15 Sur 0 1014.9 -1.5 66
2019-10-06 18:00:00 25.2 8 Sur 16 Sudeste 0 1015.1 -1.2 64
2019-10-06 17:00:00 26.1 8 Este 15 Nordeste 0 1015.6 -1.2 63
2019-10-06 16:00:00 26.4 9 Nordeste 17 Nordeste 0 1016.4 -0.9 61
2019-10-06 15:00:00 26.8 10 Nordeste 21 Norte 0 1016.3 -0.8 57
2019-10-06 14:00:00 26.9 11 Nordeste 19 Nordeste 0 1016.8 0.1 57
2019-10-06 13:00:00 26.6 11 Norte 25 Nordeste 0 1017.3 1.1 60
2019-10-06 12:00:00 25.8 10 Norte 23 Norte 0 1017.1 1 63
2019-10-06 11:00:00 24.5 5 Sudoeste 13 Oeste 0 1016.7 1.1 69
2019-10-06 10:00:00 20.9 7 Oeste 13 Oeste 0 1016.2 0.8 88
2019-10-06 09:00:00 17.7 7 Oeste 12 Oeste 0 1016.1 0.9 94
2019-10-06 08:00:00 17.4 7 Oeste 12 Sudoeste 0 1015.6 0.6 94
2019-10-06 07:00:00 17.5 6 Oeste 11 Noroeste 0 1015.4 0.2 94
2019-10-06 06:00:00 18.4 7 Oeste 13 Oeste 0 1015.2 0 93
2019-10-06 05:00:00 18.7 6 Oeste 12 Sudoeste 0 1015 -0.1 93
2019-10-06 04:00:00 19.2 8 Oeste 12 Oeste 0 1015.2 -0.1 93
2019-10-06 03:00:00 19.4 7 Oeste 10 Oeste 0 1015.2 0 93
2019-10-06 02:00:00 19.2 5 Oeste 10 Oeste 0 1015.1 -0.1 93
2019-10-06 01:00:00 19.2 6 Oeste 12 Oeste 0 1015.3 0.7 93
2019-10-06 00:00:00 19.2 7 Oeste 11 Oeste 0 1015.2 1.1 92
2019-10-05 23:00:00 19.4 7 Sudoeste 9 Sudoeste 0 1015.2 1.3 89
2019-10-05 22:00:00 20.8 5 Oeste 10 Sudoeste 0 1014.6 1.1 87
2019-10-05 21:00:00 21.3 5 Sudoeste 10 Sur 0 1014.1 0.5 83
2019-10-05 20:00:00 23.1 5 Sur 14 Sudeste 0 1013.9 0.2 74
2019-10-05 19:00:00 24.8 7 Este 15 Este 0 1013.5 -0.5 66
2019-10-05 18:00:00 25.9 9 Este 16 Nordeste 0 1013.6 -0.6 61
2019-10-05 17:00:00 26 9 Este 20 Nordeste 0 1013.7 -0.9 60
2019-10-05 16:00:00 26.1 10 Nordeste 24 Norte 0 1014 -0.9 61
2019-10-05 15:00:00 26.6 13 Norte 31 Nordeste 0 1014.2 -0.6 58
2019-10-05 14:00:00 26.5 18 Norte 30 Norte 0 1014.6 0.2 57
2019-10-05 13:00:00 26.4 17 Norte 33 Norte 0 1014.9 1 58
2019-10-05 12:00:00 26.1 16 Norte 29 Noroeste 0 1014.8 1.5 60
2019-10-05 11:00:00 25.1 18 Noroeste 31 Norte 0 1014.4 1.5 61
2019-10-05 10:00:00 23.7 16 Noroeste 28 Noroeste 0 1013.9 0.7 66
2019-10-05 09:00:00 20.2 13 Noroeste 20 Noroeste 0 1013.3 0.3 80
2019-10-05 08:00:00 18.4 11 Oeste 16 Oeste 0 1012.9 0 93
2019-10-05 07:00:00 18.4 9 Sudoeste 15 Sudoeste 0 1013.2 0.3 93
2019-10-05 06:00:00 18.2 4 Oeste 14 Sudoeste 0 1013 0.2 94
2019-10-05 05:00:00 17.2 6 Sudoeste 13 Sudoeste 0 1012.9 0.1 92
2019-10-05 04:00:00 16.6 7 Sudoeste 11 Sudoeste 0 1012.9 0.1 91
2019-10-05 03:00:00 16.3 8 Sudoeste 12 Sudoeste 0 1012.8 0 84
2019-10-05 02:00:00 17.3 5 Sudoeste 11 Oeste 0 1012.8 0.1 82
2019-10-05 01:00:00 20.6 8 Oeste 13 Oeste 0 1012.8 0 73
2019-10-05 00:00:00 21 5 Oeste 18 Sudoeste 0 1012.8 0.1 73
2019-10-04 23:00:00 22 10 Sudoeste 23 Oeste 0 1012.7 0.1 72
2019-10-04 22:00:00 22.3 13 Sudoeste 23 Oeste 0 1012.8 0 75
2019-10-04 21:00:00 22.6 8 Oeste 21 Sudoeste 0 1012.7 -0.3 73
2019-10-04 20:00:00 23.4 6 Sudoeste 24 Sudoeste 0 1012.6 -0.7 70
2019-10-04 19:00:00 25.8 10 Sudoeste 24 Sur 0 1012.8 -1.2 60
2019-10-04 18:00:00 27.7 9 Sudoeste 19 Sur 0 1013 -1.9 53
2019-10-04 17:00:00 28.4 11 Sur 24 Sudeste 0 1013.3 -2.5 53
2019-10-04 16:00:00 28.3 12 Sur 22 Sur 0 1014 -2.3 52
2019-10-04 15:00:00 27.8 11 Sudeste 21 Sudeste 0 1014.9 -1.7 54
2019-10-04 14:00:00 26.5 9 Este 19 Este 0 1015.8 -0.6 52
2019-10-04 13:00:00 26.4 8 Nordeste 13 Este 0 1016.3 0.1 53
2019-10-04 12:00:00 26.6 6 Nordeste 10 Este 0 1016.6 0.9 41
2019-10-04 11:00:00 23.9 3 Noroeste 11 Oeste 0 1016.4 1.1 44
2019-10-04 10:00:00 18.3 8 Sudoeste 13 Oeste 0 1016.2 1 66
2019-10-04 09:00:00 14.1 8 Sudoeste 12 Oeste 0 1015.7 0.6 83
2019-10-04 08:00:00 13.2 6 Sudoeste 12 Sudoeste 0 1015.3 0 86
2019-10-04 07:00:00 13.7 7 Sudoeste 11 Sudoeste 0 1015.2 -0.2 86
2019-10-04 06:00:00 14.3 7 Sudoeste 13 Sudoeste 0 1015.1 -0.3 87
2019-10-04 05:00:00 15.3 7 Oeste 14 Noroeste 0 1015.3 0 90
2019-10-04 04:00:00 16.2 7 Oeste 12 Oeste 0 1015.4 0.1 88
2019-10-04 03:00:00 15.2 9 Sudoeste 11 Sudoeste 0 1015.4 0 89
2019-10-04 02:00:00 15.5 5 Sudoeste 12 Sudoeste 0 1015.3 0 90
2019-10-04 01:00:00 16.6 6 Sudoeste 12 Oeste 0 1015.3 0 87
2019-10-04 00:00:00 17.2 6 Sudoeste 12 Oeste 0 1015.4 0.7 84
2019-10-03 23:00:00 19.6 6 Oeste 12 Sudoeste 0 1015.3 0.8 77
2019-10-03 22:00:00 20.2 4 Sudoeste 11 Oeste 0 1015.3 1.1 73
2019-10-03 21:00:00 20.5 5 Oeste 10 Sur 0 1014.7 0.3 71
2019-10-03 20:00:00 21.8 8 Sudoeste 16 Sur 0 1014.5 -0.3 64
2019-10-03 19:00:00 24.3 10 Sur 19 Sudeste 0 1014.2 -0.9 53
2019-10-03 18:00:00 26 10 Sur 17 Sur 0 1014.4 -1 47
2019-10-03 17:00:00 25.5 8 Este 18 Este 0 1014.8 -1.1 47
2019-10-03 16:00:00 25.4 8 Este 18 Este 0 1015.1 -1 46
2019-10-03 15:00:00 25.1 10 Este 19 Nordeste 0 1015.4 -1.1 47
2019-10-03 14:00:00 24.5 12 Nordeste 21 Nordeste 0 1015.9 -0.3 48
2019-10-03 13:00:00 25.3 13 Nordeste 22 Nordeste 0 1016.1 0.1 45
2019-10-03 12:00:00 24.6 14 Norte 24 Noroeste 0 1016.5 0.9 46
2019-10-03 11:00:00 23.5 10 Norte 21 Noroeste 0 1016.2 0.8 50
2019-10-03 10:00:00 20 9 Sudoeste 16 Oeste 0 1016 0.9 55
2019-10-03 09:00:00 17 8 Oeste 14 Oeste 0 1015.6 0.6 62
2019-10-03 08:00:00 16.5 9 Sudoeste 15 Oeste 0 1015.4 0.4 64
2019-10-03 07:00:00 16.8 10 Oeste 14 Oeste 0 1015.1 0.1 62
2019-10-03 06:00:00 16.6 8 Oeste 13 Oeste 0 1015 -0.2 63
2019-10-03 05:00:00 16.7 9 Oeste 13 Sudoeste 0 1015 -0.2 65
2019-10-03 04:00:00 16.2 8 Oeste 12 Oeste 0 1015 -0.3 71
2019-10-03 03:00:00 16.3 7 Sudoeste 14 Oeste 0 1015.2 -0.2 74
2019-10-03 02:00:00 16.8 8 Sudoeste 13 Oeste 0 1015.2 0.1 75
2019-10-03 01:00:00 16.4 8 Sudoeste 10 Sudoeste 0 1015.3 0.8 81
2019-10-03 00:00:00 18.6 4 Sudoeste 12 Oeste 0 1015.4 1.5 71
2019-10-02 23:00:00 18.4 4 Noroeste 9 Oeste 0 1015.1 1.9 75
2019-10-02 22:00:00 18.5 3 Noroeste 6 Sudoeste 0 1014.5 1.9 72
2019-10-02 21:00:00 20.4 4 Sudoeste 9 Sudoeste 0 1013.9 1.7 63
2019-10-02 20:00:00 23.1 2 Sudoeste 15 Sur 0 1013.2 0.8 54
2019-10-02 19:00:00 26 8 Sudeste 16 Nordeste 0 1012.6 -0.2 42
2019-10-02 18:00:00 27.8 8 Nordeste 22 Nordeste 0 1012.2 -0.3 28
2019-10-02 17:00:00 27.3 10 Nordeste 28 Nordeste 0 1012.4 -0.8 33
2019-10-02 16:00:00 26.6 18 Norte 32 Norte 0 1012.8 -0.7 33
2019-10-02 15:00:00 27 18 Norte 31 Norte 0 1012.5 -1.2 32
2019-10-02 14:00:00 26.6 16 Norte 30 Norte 0 1013.2 -0.3 36
2019-10-02 13:00:00 26.1 18 Noroeste 32 Noroeste 0 1013.5 0.7 34
2019-10-02 12:00:00 24.6 18 Norte 31 Noroeste 0 1013.7 1.9 42
2019-10-02 11:00:00 25.8 18 Norte 33 Norte 0 1013.5 2.4 41
2019-10-02 10:00:00 24.5 12 Noroeste 25 Norte 0 1012.8 2.2 39
2019-10-02 09:00:00 22.6 13 Norte 23 Noroeste 0 1011.8 1.8 41
2019-10-02 08:00:00 23.4 13 Noroeste 30 Noroeste 0 1011.1 1.4 35
2019-10-02 07:00:00 24 17 Noroeste 33 Norte 0 1010.6 0.9 34
2019-10-02 06:00:00 22.9 11 Noroeste 21 Oeste 0 1010 0.3 36
2019-10-02 05:00:00 24.4 8 Norte 22 Noroeste 0 1009.7 0.5 32
2019-10-02 04:00:00 25.1 9 Noroeste 26 Oeste 0 1009.7 1.2 29
2019-10-02 03:00:00 24.7 12 Noroeste 35 Noroeste 0 1009.7 1.5 38
2019-10-02 02:00:00 24.4 20 Norte 37 Norte 0 1009.2 0.9 69
2019-10-02 01:00:00 27.1 19 Noroeste 41 Noroeste 0 1008.5 0.6 56
2019-10-02 00:00:00 27 16 Oeste 34 Noroeste 0 1008.2 0.6 22
2019-10-01 23:00:00 20.2 10 Oeste 19 Oeste 0 1008.3 0.7 78
2019-10-01 22:00:00 22 10 Oeste 18 Sudoeste 0 1007.9 0.4 85
2019-10-01 21:00:00 23.5 11 Oeste 16 Oeste 0 1007.6 0.1 82
2019-10-01 20:00:00 24.7 9 Sudoeste 21 Sudoeste 0 1007.6 -0.2 74
2019-10-01 19:00:00 26.4 8 Sudoeste 23 Sudoeste 0 1007.5 -0.8 68
2019-10-01 18:00:00 28.9 9 Sudoeste 21 Sudoeste 0 1007.5 -1.3 53
2019-10-01 17:00:00 29.5 9 Sudoeste 23 Sudoeste 0 1007.8 -1.7 55
2019-10-01 16:00:00 30 13 Sudoeste 22 Sudoeste 0 1008.3 -2 50
2019-10-01 15:00:00 30.5 6 Sur 19 Sudoeste 0 1008.8 -2.2 47
2019-10-01 14:00:00 30.8 9 Sur 17 Sur 0 1009.5 -1.5 50
2019-10-01 13:00:00 29.8 5 Sudoeste 11 Sudoeste 0 1010.3 -0.5 51
2019-10-01 12:00:00 28 2 Oeste 6 Sudoeste 0 1011 0.4 57
2019-10-01 11:00:00 24.7 4 Oeste 10 Sudoeste 0 1011 0 72
2019-10-01 10:00:00 21.9 4 Oeste 12 Oeste 0 1010.8 -0.3 91
2019-10-01 09:00:00 18.8 5 Sudoeste 10 Oeste 0 1010.6 -0.9 96
2019-10-01 08:00:00 17.8 5 Sudoeste 13 Sudoeste 0.2 1011 -0.9 95
2019-10-01 07:00:00 17.6 6 Oeste 10 Oeste 0 1011.1 -1.5 95
2019-10-01 06:00:00 18.2 8 Oeste 10 Sudoeste 0 1011.5 -1.8 95
2019-10-01 05:00:00 18.7 7 Sudoeste 12 Oeste 0 1011.9 -1.7 94
2019-10-01 04:00:00 19 8 Sudoeste 11 Oeste 0 1012.6 -1.5 94
2019-10-01 03:00:00 19.2 8 Oeste 12 Oeste 0 1013.3 -0.9 95
2019-10-01 02:00:00 19.5 5 Oeste 10 Oeste 0 1013.6 -0.6 94
2019-10-01 01:00:00 19.9 7 Oeste 11 Sudoeste 0 1014.1 0 94
2019-10-01 00:00:00 19.8 7 Sudoeste 10 Sudoeste 0 1014.2 0.4 93
2019-09-30 23:00:00 20.3 4 Oeste 8 Sudoeste 0 1014.2 0.6 90
2019-09-30 22:00:00 21.6 5 Sudoeste 10 Sudoeste 0 1014.1 0.5 88
2019-09-30 21:00:00 23.2 4 Oeste 7 Sudoeste 0 1013.8 -0.1 83
2019-09-30 20:00:00 24.3 0 Calma 11 Este 0 1013.6 -0.4 78
2019-09-30 19:00:00 26 4 Este 12 Este 0 1013.6 -0.9 69
2019-09-30 18:00:00 26.8 5 Norte 23 Norte 0 1013.9 -1.1 68
2019-09-30 17:00:00 28 15 Norte 29 Norte 0 1014 -1.7 62
2019-09-30 16:00:00 28.5 15 Norte 29 Norte 0 1014.5 -1.6 59
2019-09-30 15:00:00 28.4 14 Norte 30 Norte 0 1015 -1.2 60
2019-09-30 14:00:00 28.3 14 Norte 27 Norte 0 1015.7 -0.3 59
2019-09-30 13:00:00 28 15 Norte 25 Norte 0 1016.1 0.8 60
2019-09-30 12:00:00 27.5 10 Norte 21 Nordeste 0 1016.2 1.4 64
2019-09-30 11:00:00 26.3 9 Nordeste 14 Nordeste 0 1016 1.8 74
2019-09-30 10:00:00 21.4 6 Sudoeste 13 Sudoeste 0 1015.3 1.3 80
2019-09-30 09:00:00 17.2 10 Sudoeste 13 Sudoeste 0 1014.8 0.8 87
2019-09-30 08:00:00 16 9 Sudoeste 12 Sudoeste 0 1014.2 0.2 89
2019-09-30 07:00:00 16.4 9 Sudoeste 11 Sudoeste 0 1014 -0.2 92
2019-09-30 06:00:00 17 8 Oeste 10 Oeste 0 1014 -0.5 92
2019-09-30 05:00:00 17.3 4 Oeste 10 Sudoeste 0 1014 -0.5 92
2019-09-30 04:00:00 17.9 9 Sudoeste 11 Sudoeste 0 1014.2 -0.1 91
2019-09-30 03:00:00 19.2 5 Sudoeste 9 Oeste 0 1014.5 0.1 88
2019-09-30 02:00:00 21.5 6 Oeste 18 Oeste 0 1014.5 -0.2 85
2019-09-30 01:00:00 21.8 6 Oeste 15 Oeste 0 1014.3 -0.4 88
2019-09-30 00:00:00 22.4 9 Oeste 22 Sudoeste 0 1014.4 0.2 88
2019-09-29 23:00:00 22.7 8 Sudoeste 22 Sudoeste 0 1014.7 0.7 88
2019-09-29 22:00:00 23 8 Oeste 22 Sudoeste 0 1014.7 0.8 86
2019-09-29 21:00:00 23.2 8 Oeste 26 Sur 0 1014.2 0 84
2019-09-29 20:00:00 23.9 12 Sur 25 Sudoeste 0 1014 -0.7 79
2019-09-29 19:00:00 26 11 Sudoeste 28 Sudoeste 0 1013.9 -1.3 67
2019-09-29 18:00:00 27.2 13 Sur 29 Sur 0 1014.2 -1.7 62
2019-09-29 17:00:00 27.7 13 Sudoeste 32 Sudoeste 0 1014.7 -2 59
2019-09-29 16:00:00 27.8 15 Sudoeste 35 Sur 0 1015.2 -1.8 58
2019-09-29 15:00:00 27.4 18 Sudoeste 32 Sudoeste 0 1015.9 -1.2 57
2019-09-29 14:00:00 27.8 12 Sur 28 Sudoeste 0 1016.7 -0.4 56
2019-09-29 13:00:00 27.7 11 Sudoeste 25 Sudoeste 0 1017 0.2 57
2019-09-29 12:00:00 27.2 8 Sur 15 Sur 0 1017.1 0.5 56
2019-09-29 11:00:00 24.6 4 Oeste 12 Oeste 0 1017.1 0.7 71
2019-09-29 10:00:00 20.7 6 Oeste 10 Oeste 0 1016.8 0.2 86
2019-09-29 09:00:00 17 7 Sudoeste 11 Sudoeste 0 1016.6 -0.2 94
2019-09-29 08:00:00 17.1 8 Sudoeste 13 Oeste 0 1016.4 -0.7 92
2019-09-29 07:00:00 17.6 8 Sudoeste 12 Oeste 0 1016.6 -0.7 94
2019-09-29 06:00:00 18 6 Sudoeste 12 Oeste 0 1016.8 -1 94
2019-09-29 05:00:00 18.5 6 Oeste 12 Oeste 0 1017.1 -0.7 95
2019-09-29 04:00:00 18.9 9 Oeste 13 Sudoeste 0 1017.3 -0.8 95
2019-09-29 03:00:00 19.4 8 Sudoeste 13 Oeste 0 1017.8 -0.4 94
2019-09-29 02:00:00 19.8 8 Oeste 12 Oeste 0 1017.8 -0.4 94
2019-09-29 01:00:00 19.8 9 Oeste 12 Oeste 0 1018.1 0.3 93
2019-09-29 00:00:00 20.4 7 Oeste 10 Oeste 0 1018.2 0.5 93
2019-09-28 23:00:00 20.9 6 Sudoeste 8 Oeste 0 1018.2 0.6 91
2019-09-28 22:00:00 21.1 4 Oeste 5 Oeste 0 1017.8 0 87
2019-09-28 21:00:00 22.7 2 Sudeste 5 Sudeste 0 1017.7 -0.1 80
2019-09-28 20:00:00 24.7 4 Sur 12 Sudeste 0 1017.6 -0.2 72
2019-09-28 19:00:00 26.4 5 Sudeste 13 Este 0 1017.8 -0.2 64
2019-09-28 18:00:00 27.2 6 Este 22 Este 0 1017.8 -0.7 63
2019-09-28 17:00:00 28.4 9 Este 25 Norte 0 1017.8 -1.4 59
2019-09-28 16:00:00 29.1 12 Norte 27 Norte 0 1018 -1.5 57
2019-09-28 15:00:00 28.6 14 Norte 27 Norte 0 1018.5 -1.1 59
2019-09-28 14:00:00 28.2 15 Norte 25 Noroeste 0 1019.2 0 59
2019-09-28 13:00:00 27.5 18 Noroeste 27 Norte 0 1019.5 0.9 64
2019-09-28 12:00:00 27.4 13 Norte 27 Norte 0 1019.6 1.6 63
2019-09-28 11:00:00 26 12 Noroeste 29 Noroeste 0 1019.2 2.1 70
2019-09-28 10:00:00 23.9 4 Noroeste 17 Noroeste 0 1018.6 1.7 81
2019-09-28 09:00:00 21.7 5 Noroeste 11 Noroeste 0 1018 1.3 92
2019-09-28 08:00:00 20.2 4 Oeste 11 Oeste 0 1017.1 0.4 94
2019-09-28 07:00:00 19.8 6 Oeste 9 Oeste 0 1016.9 0.2 95
2019-09-28 06:00:00 19.5 7 Oeste 11 Oeste 0 1016.7 -0.3 94
2019-09-28 05:00:00 19.4 6 Sudoeste 11 Sudoeste 0 1016.7 -0.1 94
2019-09-28 04:00:00 19.4 8 Sudoeste 10 Sudoeste 0 1016.7 -0.3 93
2019-09-28 03:00:00 19.3 0 Calma 6 Sudoeste 0 1017 0.2 90
2019-09-28 02:00:00 20.9 3 Nordeste 6 Norte 0 1016.8 0.4 89
2019-09-28 01:00:00 21.6 6 Sudoeste 10 Sudoeste 0 1017 1 87
2019-09-28 00:00:00 22.5 8 Sudoeste 17 Sudoeste 0 1016.8 1.2 85
2019-09-27 23:00:00 22.5 6 Sudoeste 24 Sudoeste 0 1016.4 1 85
2019-09-27 22:00:00 22.9 8 Sudoeste 18 Sudoeste 0 1016 0.8 84
2019-09-27 21:00:00 23.2 9 Sudoeste 31 Sudoeste 0 1015.6 0.6 83
2019-09-27 20:00:00 24 12 Sudoeste 25 Sudoeste 0 1015.4 0 78
2019-09-27 19:00:00 25.8 14 Sudoeste 28 Sudoeste 0 1015.2 -0.4 66
2019-09-27 18:00:00 27.4 12 Sudoeste 28 Sur 0 1015 -1 56
2019-09-27 17:00:00 28.2 10 Sur 33 Sudoeste 0 1015.4 -1.1 54
2019-09-27 16:00:00 28.1 17 Sur 30 Sur 0 1015.6 -1.1 54
2019-09-27 15:00:00 28.7 12 Sur 29 Sudoeste 0 1016 -1.1 52
2019-09-27 14:00:00 28.9 11 Sudoeste 26 Sur 0 1016.5 -0.6 52
2019-09-27 13:00:00 28.3 13 Sudoeste 23 Sudoeste 0 1016.7 -0.2 50
2019-09-27 12:00:00 27.5 11 Sur 18 Sudoeste 0 1017.1 0.3 52
2019-09-27 11:00:00 25.8 6 Sudoeste 14 Sudoeste 0 1017.1 0.6 56
2019-09-27 10:00:00 21.7 5 Sudoeste 10 Sudoeste 0 1016.9 0.7 73
2019-09-27 09:00:00 18 4 Sudoeste 10 Oeste 0 1016.8 0.7 86
2019-09-27 08:00:00 17.4 8 Oeste 12 Oeste 0 1016.5 0.1 86
2019-09-27 07:00:00 17.1 7 Sudoeste 13 Sudoeste 0 1016.2 -0.5 89
2019-09-27 06:00:00 17.4 4 Sudoeste 12 Sudoeste 0 1016.1 -0.9 90
2019-09-27 05:00:00 18.1 2 Sudoeste 8 Sudoeste 0 1016.4 -0.9 87
2019-09-27 04:00:00 19.8 3 Noroeste 11 Sudoeste 0 1016.7 -0.8 81
2019-09-27 03:00:00 21.7 6 Sudoeste 16 Oeste 0 1017 -0.4 76
2019-09-27 02:00:00 22.2 7 Sudoeste 19 Oeste 0 1017.3 0.1 74
2019-09-27 01:00:00 22.5 9 Sudoeste 19 Sudoeste 0 1017.5 0.5 78
2019-09-27 00:00:00 22.6 7 Sudoeste 18 Oeste 0 1017.4 0.8 82
2019-09-26 23:00:00 22.8 6 Oeste 18 Sudoeste 0 1017.2 0.9 83
2019-09-26 22:00:00 23 7 Sudoeste 18 Sudoeste 0 1017 0.6 83
2019-09-26 21:00:00 23.3 9 Sudoeste 17 Sur 0 1016.6 0.2 82
2019-09-26 20:00:00 24.1 9 Sudoeste 24 Sudoeste 0 1016.3 -0.4 78
2019-09-26 19:00:00 25.4 9 Sur 24 Sur 0 1016.4 -0.5 68
2019-09-26 18:00:00 27.4 13 Sur 27 Sur 0 1016.4 -0.9 59
2019-09-26 17:00:00 28.4 11 Sur 27 Sur 0 1016.7 -1.3 60
2019-09-26 16:00:00 28.7 12 Sudeste 28 Sudeste 0 1016.9 -1.6 58
2019-09-26 15:00:00 28.7 14 Sur 24 Sur 0 1017.3 -1.4 53
2019-09-26 14:00:00 26.8 11 Nordeste 27 Nordeste 0 1018 -0.6 62
2019-09-26 13:00:00 27.2 9 Nordeste 15 Nordeste 0 1018.5 0.2 59
2019-09-26 12:00:00 27.1 3 Este 9 Este 0 1018.7 1 62
2019-09-26 11:00:00 25.5 6 Sudoeste 13 Oeste 0 1018.6 1.4 70
2019-09-26 10:00:00 22 8 Oeste 13 Oeste 0 1018.3 1.5 86
2019-09-26 09:00:00 19 7 Sudoeste 11 Oeste 0 1017.7 1.3 94
2019-09-26 08:00:00 18 5 Sudoeste 11 Sudoeste 0 1017.2 1 94
2019-09-26 07:00:00 18.2 5 Sudoeste 10 Sudoeste 0 1016.8 0.7 94
2019-09-26 06:00:00 18.5 7 Sudoeste 12 Oeste 0 1016.4 0.1 93
2019-09-26 05:00:00 19.6 8 Oeste 14 Oeste 0 1016.2 -0.1 93
2019-09-26 04:00:00 19.5 7 Oeste 13 Oeste 0 1016.1 -0.3 93
2019-09-26 03:00:00 19.6 8 Oeste 12 Oeste 0 1016.3 0 94
2019-09-26 02:00:00 20.3 6 Oeste 12 Oeste 0 1016.3 0.5 91
2019-09-26 01:00:00 20.4 8 Sudoeste 10 Sudoeste 0 1016.4 0.9 93
2019-09-26 00:00:00 20.7 4 Sudoeste 9 Oeste 0 1016.3 1.4 90
2019-09-25 23:00:00 21.3 5 Sudoeste 8 Sudoeste 0 1015.8 1.3 90
2019-09-25 22:00:00 21.9 4 Sudoeste 6 Sudoeste 0 1015.5 1.4 85
2019-09-25 21:00:00 23.6 2 Sudeste 11 Este 0 1014.9 0.9 78
2019-09-25 20:00:00 24.6 7 Este 17 Nordeste 0 1014.5 0.5 74
2019-09-25 19:00:00 26 9 Este 21 Nordeste 0 1014.1 0.1 69
2019-09-25 18:00:00 26.2 11 Nordeste 21 Nordeste 0 1014 0 63
2019-09-25 17:00:00 26.7 11 Nordeste 27 Norte 0 1014 -0.2 62
2019-09-25 16:00:00 27.5 14 Nordeste 25 Nordeste 0 1014 -0.6 58
2019-09-25 15:00:00 27.3 14 Nordeste 34 Norte 0 1014 -0.1 57
2019-09-25 14:00:00 28 19 Norte 32 Norte 0 1014.2 0.5 51
2019-09-25 13:00:00 29.3 16 Norte 39 Norte 0 1014.6 1.7 44
2019-09-25 12:00:00 30.4 18 Oeste 45 Oeste 0 1014.1 1.8 33
2019-09-25 11:00:00 29.2 19 Oeste 43 Oeste 0 1013.7 1.7 36
2019-09-25 10:00:00 27.5 17 Oeste 35 Oeste 0 1012.9 1.1 39
2019-09-25 09:00:00 25.3 13 Sudoeste 34 Oeste 0 1012.3 0.5 49
2019-09-25 08:00:00 25.4 18 Oeste 40 Oeste 0 1012 0.2 46
2019-09-25 07:00:00 25.1 12 Sudoeste 28 Oeste 0 1011.8 -0.2 47
2019-09-25 06:00:00 25.5 11 Oeste 43 Noroeste 0 1011.8 -0.1 44
2019-09-25 05:00:00 26.6 20 Noroeste 42 Noroeste 0 1011.8 -0.3 41
2019-09-25 04:00:00 24.1 13 Oeste 26 Oeste 0 1012 -0.3 37
2019-09-25 03:00:00 20.7 10 Oeste 18 Oeste 0 1011.9 -0.8 51
2019-09-25 02:00:00 20.6 11 Oeste 21 Sudoeste 0 1012.1 -0.8 54
2019-09-25 01:00:00 19.3 11 Sudoeste 20 Oeste 0 1012.3 -0.7 70
2019-09-25 00:00:00 20.9 12 Oeste 20 Oeste 0 1012.7 0 80
2019-09-24 23:00:00 22.1 10 Oeste 15 Oeste 0 1012.9 0.4 81
2019-09-24 22:00:00 23.1 5 Sudoeste 21 Sudoeste 0 1013 0.5 78
2019-09-24 21:00:00 23.7 12 Sudoeste 25 Sudoeste 0 1012.7 0 71
2019-09-24 20:00:00 25 12 Sudoeste 28 Sudoeste 0 1012.5 -0.6 64
2019-09-24 19:00:00 27.1 14 Sudoeste 34 Sudoeste 0 1012.5 -1 58
2019-09-24 18:00:00 28.7 14 Sudoeste 35 Sudoeste 0 1012.7 -1.5 52
2019-09-24 17:00:00 30.4 14 Sudoeste 29 Sudoeste 0 1013.1 -2 44
2019-09-24 16:00:00 31.4 12 Sudoeste 26 Sur 0 1013.5 -2.5 37
2019-09-24 15:00:00 31.4 12 Sur 22 Sudoeste 0 1014.2 -2.2 29
2019-09-24 14:00:00 31 10 Sudoeste 19 Sudoeste 0 1015.1 -1.3 35
2019-09-24 13:00:00 28.9 7 Nordeste 12 Nordeste 0 1016 0 37
2019-09-24 12:00:00 28.4 7 Nordeste 10 Nordeste 0 1016.4 0.7 38
2019-09-24 11:00:00 26.6 3 Oeste 14 Oeste 0 1016.4 0.5 49
2019-09-24 10:00:00 22.6 9 Oeste 15 Sudoeste 0 1016 0.3 58
2019-09-24 09:00:00 18.8 8 Oeste 14 Oeste 0 1015.7 0.1 70
2019-09-24 08:00:00 18.2 9 Oeste 14 Oeste 0 1015.9 -0.1 72
2019-09-24 07:00:00 19 7 Oeste 14 Oeste 0 1015.7 -0.8 77
2019-09-24 06:00:00 18.8 8 Oeste 12 Oeste 0 1015.6 -1.5 78
2019-09-24 05:00:00 18.9 8 Oeste 15 Oeste 0 1016 -1.4 80
2019-09-24 04:00:00 19.6 10 Oeste 15 Oeste 0 1016.5 -1.1 79
2019-09-24 03:00:00 20.5 7 Oeste 15 Oeste 0 1017.1 -0.8 80
2019-09-24 02:00:00 20.8 8 Sudoeste 14 Oeste 0 1017.4 -0.7 79
2019-09-24 01:00:00 21.7 8 Oeste 19 Oeste 0 1017.6 -0.6 75
2019-09-24 00:00:00 22.1 9 Oeste 20 Sudoeste 0 1017.9 0.4 73
2019-09-23 23:00:00 21 7 Sudoeste 14 Oeste 0 1018.1 0.8 82
2019-09-23 22:00:00 21.4 5 Oeste 9 Oeste 0 1018.2 1 81
2019-09-23 21:00:00 21.9 5 Sudoeste 7 Sudoeste 0 1017.5 0.4 81
2019-09-23 20:00:00 23.9 2 Sudeste 9 Este 0 1017.3 0 70
2019-09-23 19:00:00 25 5 Este 11 Sudeste 0 1017.2 -0.2 65
2019-09-23 18:00:00 25.4 6 Este 14 Este 0 1017.1 -0.3 61
2019-09-23 17:00:00 26.3 9 Nordeste 17 Nordeste 0 1017.3 -0.5 53
2019-09-23 16:00:00 27.1 9 Nordeste 20 Norte 0 1017.4 -0.9 53
2019-09-23 15:00:00 27.5 13 Norte 24 Noroeste 0 1017.4 -1 51
2019-09-23 14:00:00 27.2 16 Norte 29 Noroeste 0 1017.8 -0.7 47
2019-09-23 13:00:00 27.2 15 Noroeste 27 Noroeste 0 1018.3 0.4 44
2019-09-23 12:00:00 27.1 11 Noroeste 27 Noroeste 0 1018.4 0.9 43
2019-09-23 11:00:00 26.7 8 Noroeste 23 Oeste 0 1018.5 1.7 37
2019-09-23 10:00:00 24.4 12 Noroeste 31 Noroeste 0 1017.9 2.1 38
2019-09-23 09:00:00 23 15 Noroeste 28 Noroeste 0 1017.5 2.4 41
2019-09-23 08:00:00 22.7 11 Oeste 28 Noroeste 0 1016.8 1.9 41
2019-09-23 07:00:00 22.3 7 Noroeste 14 Noroeste 0 1015.8 1 43
2019-09-23 06:00:00 23.3 6 Oeste 20 Oeste 0 1015.1 0.4 44
2019-09-23 05:00:00 23.2 4 Sudoeste 18 Oeste 0 1014.9 0.1 45
2019-09-23 04:00:00 23.3 9 Oeste 21 Oeste 0 1014.8 0.3 45
2019-09-23 03:00:00 22.2 11 Oeste 24 Oeste 0 1014.7 0.5 53
2019-09-23 02:00:00 21.1 8 Sudoeste 18 Oeste 0 1014.8 1.3 72
2019-09-23 01:00:00 21.5 8 Sudoeste 11 Sudoeste 0 1014.5 1.8 80
2019-09-23 00:00:00 22.6 6 Oeste 10 Oeste 0 1014.2 2.1 81
2019-09-22 23:00:00 23.2 5 Noroeste 18 Sudoeste 0 1013.5 2.1 79
2019-09-22 22:00:00 23.9 14 Sudoeste 23 Sudoeste 0 1012.7 1.3 74
2019-09-22 21:00:00 24.1 6 Sudoeste 16 Sudoeste 0 1012.1 1 78
2019-09-22 20:00:00 25 7 Sudoeste 20 Sudoeste 0 1011.4 0.4 69
2019-09-22 19:00:00 26.9 10 Sudoeste 20 Sudoeste 0 1011.4 0.3 61
2019-09-22 18:00:00 28.5 9 Sudoeste 18 Sudoeste 0 1011.1 -0.1 60
2019-09-22 17:00:00 28.9 10 Sur 19 Sur 0 1011 -0.6 56
2019-09-22 16:00:00 28.7 11 Sur 23 Sur 0 1011.1 -0.9 56
2019-09-22 15:00:00 29.6 10 Sudeste 20 Sudeste 0 1011.2 -0.8 55
2019-09-22 14:00:00 28.8 8 Este 17 Este 0 1011.6 -0.4 50
2019-09-22 13:00:00 28.4 6 Este 22 Este 0 1012 0.2 66
2019-09-22 12:00:00 28.3 8 Este 17 Este 0 1012 0.7 58
2019-09-22 11:00:00 27.3 3 Sur 9 Oeste 0 1012 0.8 65
2019-09-22 10:00:00 23.7 6 Sudoeste 12 Oeste 0 1011.8 0.8 82
2019-09-22 09:00:00 21.1 7 Oeste 12 Oeste 0 1011.3 0.9 91
2019-09-22 08:00:00 20.7 5 Oeste 9 Sudoeste 0 1011.2 0.4 92
2019-09-22 07:00:00 21.2 5 Sudoeste 12 Sur 0 1011 0.2 91
2019-09-22 06:00:00 21.6 4 Sudoeste 8 Sudoeste 0 1010.4 -0.6 89
2019-09-22 05:00:00 22.2 6 Oeste 8 Noroeste 0 1010.8 0 87
2019-09-22 04:00:00 22.8 5 Oeste 14 Sudoeste 0 1010.8 -0.3 86
2019-09-22 03:00:00 23 4 Noroeste 12 Sudoeste 0 1011 0 87
2019-09-22 02:00:00 23.5 6 Oeste 18 Sudoeste 0 1010.8 0 85
2019-09-22 01:00:00 23.6 8 Sudoeste 20 Sur 0 1011.1 -0.4 87
2019-09-22 00:00:00 23.6 9 Sudoeste 18 Sudoeste 0 1011 -0.1 84
2019-09-21 23:00:00 23.9 7 Sudoeste 22 Sudoeste 0 1010.8 -0.2 79
2019-09-21 22:00:00 24.2 13 Sudoeste 24 Oeste 0 1011.5 1 78
2019-09-21 21:00:00 24.2 9 Sudoeste 18 Sudoeste 0 1011.1 0.6 79
2019-09-21 20:00:00 24.5 8 Sur 17 Sur 0 1011 0.7 73
2019-09-21 19:00:00 25.4 8 Sur 17 Sur 0 1010.5 -0.3 66
2019-09-21 18:00:00 26.6 4 Sudeste 12 Sudeste 0 1010.5 -0.6 65
2019-09-21 17:00:00 28.6 7 Sudeste 18 Norte 0 1010.3 -1.3 59
2019-09-21 16:00:00 28 13 Norte 25 Norte 0 1010.8 -1.4 62
2019-09-21 15:00:00 25.9 17 Norte 31 Norte 0 1011.1 -1.2 67
2019-09-21 14:00:00 27.3 17 Norte 27 Noroeste 0 1011.6 -0.6 63
2019-09-21 13:00:00 27.6 15 Norte 27 Noroeste 0 1012.2 0.3 61
2019-09-21 12:00:00 26.1 14 Noroeste 31 Noroeste 0 1012.3 0.7 66
2019-09-21 11:00:00 26.2 9 Norte 18 Noroeste 0 1012.2 0.5 73
2019-09-21 10:00:00 25.2 7 Norte 13 Nordeste 0 1011.9 0.3 78
2019-09-21 09:00:00 23.3 5 Norte 14 Nordeste 0 1011.6 0 86
2019-09-21 08:00:00 23.1 5 Norte 14 Nordeste 0 1011.7 -0.3 87
2019-09-21 07:00:00 23.3 9 Nordeste 17 Nordeste 0 1011.6 -1.1 84
2019-09-21 06:00:00 22.8 9 Norte 15 Norte 0 1011.6 -1.4 86
2019-09-21 05:00:00 22.3 5 Nordeste 10 Nordeste 0 1012 -1.3 89
2019-09-21 04:00:00 22.3 4 Sudoeste 10 Noroeste 0 1012.7 -0.4 89
2019-09-21 03:00:00 22 4 Sudoeste 7 Sudoeste 0 1013 -0.6 89
2019-09-21 02:00:00 23 3 Nordeste 14 Nordeste 0 1013.3 -1.5 82
2019-09-21 01:00:00 23.6 8 Nordeste 14 Nordeste 0 1013.1 -1.2 83
2019-09-21 00:00:00 23.6 5 Nordeste 18 Este 0 1013.6 -0.7 84
2019-09-20 23:00:00 23.9 6 Norte 15 Norte 0 1014.8 0.8 83
2019-09-20 22:00:00 23.9 6 Norte 11 Nordeste 0 1014.3 0 83
2019-09-20 21:00:00 23.9 5 Nordeste 16 Nordeste 0 1014.3 -0.3 81
2019-09-20 20:00:00 24.3 9 Nordeste 17 Nordeste 0 1014 -1.2 80
2019-09-20 19:00:00 24.8 9 Nordeste 19 Nordeste 0 1014.3 -1.3 78
2019-09-20 18:00:00 25.1 10 Nordeste 18 Nordeste 0 1014.6 -1.2 77
2019-09-20 17:00:00 25.4 9 Nordeste 19 Este 0 1015.2 -0.7 76
2019-09-20 16:00:00 25.4 7 Este 20 Nordeste 0 1015.6 -0.5 76
2019-09-20 15:00:00 26.1 9 Nordeste 22 Nordeste 0 1015.8 -0.6 71
2019-09-20 14:00:00 26.8 12 Nordeste 21 Nordeste 0 1015.9 -0.4 66
2019-09-20 13:00:00 26.5 12 Nordeste 22 Nordeste 0 1016.1 -0.2 71
2019-09-20 12:00:00 26.5 10 Nordeste 22 Norte 0 1016.4 0 69
2019-09-20 11:00:00 25.4 17 Noroeste 24 Norte 0 1016.3 0 73
2019-09-20 10:00:00 23.6 5 Noroeste 12 Norte 0 1016.3 0.1 83
2019-09-20 09:00:00 21.1 7 Sudoeste 11 Oeste 0 1016.4 0.6 89
2019-09-20 08:00:00 20.5 6 Oeste 13 Oeste 0 1016.3 0 90
2019-09-20 07:00:00 20.1 8 Oeste 12 Oeste 0 1016.2 0.2 91
2019-09-20 06:00:00 20.2 5 Oeste 12 Oeste 0 1015.8 -0.4 91
2019-09-20 05:00:00 20.7 9 Oeste 14 Oeste 0 1016.3 -0.1 91
2019-09-20 04:00:00 20.5 5 Sudoeste 12 Oeste 0 1016 -0.6 92
2019-09-20 03:00:00 21 7 Oeste 10 Oeste 0 1016.2 -0.5 92
2019-09-20 02:00:00 20.3 5 Sudoeste 12 Oeste 0 1016.4 -0.2 92
2019-09-20 01:00:00 20.7 6 Sudoeste 11 Oeste 0 1016.6 0.5 92
2019-09-20 00:00:00 20.5 6 Oeste 9 Sudoeste 0 1016.7 1.3 92
2019-09-19 23:00:00 21.3 6 Oeste 9 Oeste 0 1016.6 1.8 91
2019-09-19 22:00:00 21.8 6 Sudoeste 8 Sudoeste 0 1016.1 1.2 86
2019-09-19 21:00:00 23.2 2 Este 9 Nordeste 0 1015.4 0.6 80
2019-09-19 20:00:00 24.1 4 Este 14 Nordeste 0 1014.8 0 74
2019-09-19 19:00:00 25.7 8 Este 17 Nordeste 0 1014.9 -0.2 67
2019-09-19 18:00:00 26.3 10 Nordeste 18 Nordeste 0 1014.8 -0.7 63
2019-09-19 17:00:00 27 9 Nordeste 20 Nordeste -- 1014.8 -1.1 60
2019-09-19 16:00:00 27 13 Nordeste 23 Nordeste -- 1015.1 -1.1 60
2019-09-19 15:00:00 27.3 13 Nordeste 24 Nordeste -- 1015.5 -0.9 59
2019-09-19 14:00:00 28.6 9 Norte 22 Norte -- 1015.9 -0.1 55
2019-09-19 13:00:00 28.2 9 Norte -- -- -- 1016.2 0.7 53
2019-09-19 12:00:00 26.9 10 Norte -- -- -- 1016.4 1.4 62
2019-09-19 11:00:00 25.9 10 Noroeste 24 Noroeste -- 1016 1.5 67
2019-09-19 10:00:00 23.9 6 Noroeste 19 Noroeste -- 1015.5 1.1 80
2019-09-19 09:00:00 19.5 6 Sudoeste 13 Oeste -- 1015 0.4 92
2019-09-19 08:00:00 17.8 3 Sudoeste 14 Sudoeste -- 1014.5 -0.1 91
2019-09-19 07:00:00 17.8 8 Sudoeste 13 Oeste -- 1014.4 -0.5 91
2019-09-19 06:00:00 18.9 9 Oeste 14 Oeste -- 1014.6 -0.4 91
2019-09-19 05:00:00 18 8 Oeste 12 Oeste -- 1014.6 -0.4 90
2019-09-19 04:00:00 18.8 9 Oeste 12 Oeste -- 1014.9 0 90
2019-09-19 03:00:00 17.7 7 Oeste 11 Oeste -- 1015 0.4 85
2019-09-19 02:00:00 18.5 7 Oeste 10 Sudoeste -- 1015 0.5 80
2019-09-19 01:00:00 19.1 9 Oeste 13 Oeste -- 1014.9 0.5 80
2019-09-19 00:00:00 19.7 11 Sudoeste 12 Sudoeste -- 1014.6 0.8 80